Time;durP1;ratioP1;P1;durP2;ratioP2;P2;SDS_P1;SDS_P2;PMS_P1;PMS_P2;Temp;Humidity;BMP_temperature;BMP_pressure;BME280_temperature;BME280_humidity;BME280_pressure;Samples;Min_cycle;Max_cycle;Signal;HPM_P1;HPM_P2
2021/03/24 00:02:14;;;;;;;2.50;2.22;;;;;;;;;;5114994;28;20229;-50
2021/03/24 00:04:40;;;;;;;2.58;2.30;;;;;;;;;;5114063;28;20220;-50
2021/03/24 00:07:06;;;;;;;2.20;2.00;;;;;;;;;;5114382;28;20234;-50
2021/03/24 00:09:32;;;;;;;2.28;2.08;;;;;;;;;;5114521;28;20181;-50
2021/03/24 00:11:58;;;;;;;2.40;2.20;;;;;;;;;;5115008;28;20248;-50
2021/03/24 00:14:24;;;;;;;2.50;2.30;;;;;;;;;;5113949;28;20195;-50
2021/03/24 00:16:50;;;;;;;2.45;2.13;;;;;;;;;;5114496;28;20193;-50
2021/03/24 00:19:16;;;;;;;2.85;2.22;;;;;;;;;;5114341;28;20515;-50
2021/03/24 00:21:42;;;;;;;2.30;2.08;;;;;;;;;;5114656;28;20192;-50
2021/03/24 00:24:08;;;;;;;2.10;1.90;;;;;;;;;;5113849;28;20196;-50
2021/03/24 00:26:34;;;;;;;2.33;2.10;;;;;;;;;;5113849;28;20239;-50
2021/03/24 00:29:00;;;;;;;2.40;2.20;;;;;;;;;;5114194;28;20200;-50
2021/03/24 00:31:26;;;;;;;3.80;2.20;;;;;;;;;;5114449;28;20506;-50
2021/03/24 00:33:52;;;;;;;2.30;2.10;;;;;;;;;;5114968;28;20173;-50
2021/03/24 00:36:18;;;;;;;2.38;2.15;;;;;;;;;;5112974;28;20189;-50
2021/03/24 00:38:45;;;;;;;2.28;2.08;;;;;;;;;;5114200;28;20628;-50
2021/03/24 00:41:11;;;;;;;2.47;1.92;;;;;;;;;;5114790;28;20189;-50
2021/03/24 00:43:37;;;;;;;2.10;1.90;;;;;;;;;;5113429;28;20177;-49
2021/03/24 00:46:03;;;;;;;2.50;2.30;;;;;;;;;;5113821;28;20582;-50
2021/03/24 00:48:32;;;;;;;2.30;2.10;;;;;;;;;;5113998;28;20289;-50
2021/03/24 00:50:58;;;;;;;2.78;2.50;;;;;;;;;;5114075;28;20169;-50
2021/03/24 00:53:25;;;;;;;2.40;2.20;;;;;;;;;;5095995;28;20181;-50
2021/03/24 00:55:51;;;;;;;2.55;2.33;;;;;;;;;;5113816;28;20201;-50
2021/03/24 00:58:17;;;;;;;2.55;2.35;;;;;;;;;;5113570;28;20259;-50
2021/03/24 01:00:44;;;;;;;3.13;2.17;;;;;;;;;;5114446;28;20224;-50
2021/03/24 01:03:10;;;;;;;2.58;2.38;;;;;;;;;;5114484;28;20188;-50
2021/03/24 01:05:36;;;;;;;2.30;2.10;;;;;;;;;;5113120;28;20210;-49
2021/03/24 01:08:16;;;;;;;2.00;1.80;;;;;;;;;;5113744;28;20571;-49
2021/03/24 01:10:43;;;;;;;2.15;2.00;;;;;;;;;;5114211;28;20172;-49
2021/03/24 01:13:09;;;;;;;3.35;2.45;;;;;;;;;;5096237;28;20251;-49
2021/03/24 01:15:35;;;;;;;2.42;2.20;;;;;;;;;;5113284;28;20308;-50
2021/03/24 01:18:02;;;;;;;2.20;1.92;;;;;;;;;;5113674;28;20262;-49
2021/03/24 01:20:30;;;;;;;2.13;1.92;;;;;;;;;;5113401;28;20205;-50
2021/03/24 01:22:56;;;;;;;2.40;2.20;;;;;;;;;;5093947;28;20235;-50
2021/03/24 01:25:23;;;;;;;2.30;2.10;;;;;;;;;;5113072;28;20258;-50
2021/03/24 01:27:49;;;;;;;1.98;1.80;;;;;;;;;;5113660;28;20181;-50
2021/03/24 01:30:16;;;;;;;2.63;2.30;;;;;;;;;;5114201;28;20487;-50
2021/03/24 01:32:42;;;;;;;2.28;2.08;;;;;;;;;;5113866;28;20184;-49
2021/03/24 01:35:09;;;;;;;2.25;2.05;;;;;;;;;;5102647;28;20186;-49
2021/03/24 01:37:37;;;;;;;2.30;2.10;;;;;;;;;;5097528;28;20200;-50
2021/03/24 01:40:05;;;;;;;2.10;1.90;;;;;;;;;;5113664;28;20268;-50
2021/03/24 01:42:31;;;;;;;2.47;2.28;;;;;;;;;;5113364;28;20791;-50
2021/03/24 01:44:59;;;;;;;2.05;1.95;;;;;;;;;;5113556;28;20501;-50
2021/03/24 01:47:25;;;;;;;2.33;2.13;;;;;;;;;;5112981;28;20259;-50
2021/03/24 01:49:51;;;;;;;2.17;1.98;;;;;;;;;;5113905;28;20186;-50
2021/03/24 01:52:18;;;;;;;2.20;1.88;;;;;;;;;;5113710;28;20184;-50
2021/03/24 01:54:44;;;;;;;2.55;2.35;;;;;;;;;;5114295;28;20242;-50
2021/03/24 01:57:15;;;;;;;2.20;2.00;;;;;;;;;;5116998;28;20271;-50
2021/03/24 01:59:41;;;;;;;2.35;2.10;;;;;;;;;;5117189;28;20173;-50
2021/03/24 02:02:09;;;;;;;2.28;1.98;;;;;;;;;;5113262;28;20255;-50
2021/03/24 02:04:35;;;;;;;2.00;1.90;;;;;;;;;;5113605;28;20651;-50
2021/03/24 02:07:21;;;;;;;2.13;2.00;;;;;;;;;;5116828;28;20273;-50
2021/03/24 02:10:06;;;;;;;2.40;2.20;;;;;;;;;;5113317;28;20172;-50
2021/03/24 02:12:38;;;;;;;2.30;2.10;;;;;;;;;;5116550;28;20180;-50
2021/03/24 02:15:04;;;;;;;3.15;2.08;;;;;;;;;;5115718;28;20234;-50
2021/03/24 02:17:34;;;;;;;2.38;2.17;;;;;;;;;;5116175;28;20180;-50
2021/03/24 02:20:12;;;;;;;2.03;1.75;;;;;;;;;;5117068;28;20236;-50
2021/03/24 02:22:40;;;;;;;1.90;1.80;;;;;;;;;;5114084;28;20595;-50
2021/03/24 02:25:09;;;;;;;2.10;2.00;;;;;;;;;;5113552;28;20209;-50
2021/03/24 02:27:43;;;;;;;2.25;2.05;;;;;;;;;;5102587;28;20173;-50
2021/03/24 02:30:12;;;;;;;2.17;1.98;;;;;;;;;;5099418;28;20176;-50
2021/03/24 02:32:40;;;;;;;1.80;1.70;;;;;;;;;;5116516;28;20173;-50
2021/03/24 02:35:10;;;;;;;2.05;1.88;;;;;;;;;;5105810;28;20189;-50
2021/03/24 02:37:37;;;;;;;2.83;2.30;;;;;;;;;;5110637;28;20185;-50
2021/03/24 02:40:11;;;;;;;2.40;2.20;;;;;;;;;;5116535;28;20560;-49
2021/03/24 02:42:38;;;;;;;2.20;2.00;;;;;;;;;;5116356;28;20267;-50
2021/03/24 02:45:05;;;;;;;2.00;1.90;;;;;;;;;;5115694;28;20209;-50
2021/03/24 02:47:31;;;;;;;2.42;2.20;;;;;;;;;;5116003;28;20177;-50
2021/03/24 02:49:58;;;;;;;2.33;2.13;;;;;;;;;;5116481;28;20194;-50
2021/03/24 02:52:24;;;;;;;2.30;2.10;;;;;;;;;;5116073;28;20181;-50
2021/03/24 02:54:50;;;;;;;2.38;2.17;;;;;;;;;;5116072;28;20187;-50
2021/03/24 02:57:16;;;;;;;2.30;2.10;;;;;;;;;;5116101;28;20181;-50
2021/03/24 02:59:42;;;;;;;2.35;2.15;;;;;;;;;;5116312;28;20188;-50
2021/03/24 03:02:13;;;;;;;2.55;2.30;;;;;;;;;;5116153;28;20696;-50
2021/03/24 03:04:45;;;;;;;2.22;2.03;;;;;;;;;;5114903;28;20461;-50
2021/03/24 03:07:19;;;;;;;2.47;2.28;;;;;;;;;;5114870;28;20216;-50
2021/03/24 03:09:56;;;;;;;2.08;1.98;;;;;;;;;;5097874;28;20168;-50
2021/03/24 03:12:30;;;;;;;1.75;1.65;;;;;;;;;;5104776;28;20176;-49
2021/03/24 03:15:00;;;;;;;2.30;2.10;;;;;;;;;;5115581;28;20181;-50
2021/03/24 03:17:37;;;;;;;2.00;1.90;;;;;;;;;;5115577;28;20256;-50
2021/03/24 03:20:12;;;;;;;2.25;1.80;;;;;;;;;;5116236;28;20181;-50
2021/03/24 03:22:58;;;;;;;2.10;2.00;;;;;;;;;;5115728;28;20568;-50
2021/03/24 03:25:32;;;;;;;2.05;1.88;;;;;;;;;;5114838;28;20212;-50
2021/03/24 03:28:00;;;;;;;2.50;2.30;;;;;;;;;;5115606;28;20186;-50
2021/03/24 03:30:28;;;;;;;2.05;1.90;;;;;;;;;;5115321;28;20199;-50
2021/03/24 03:32:56;;;;;;;2.80;2.20;;;;;;;;;;5115517;28;20169;-49
2021/03/24 03:35:23;;;;;;;2.22;2.00;;;;;;;;;;5102166;28;20194;-49
2021/03/24 03:37:51;;;;;;;1.90;1.80;;;;;;;;;;5114216;28;20934;-50
2021/03/24 03:40:18;;;;;;;2.05;1.85;;;;;;;;;;5114913;28;20185;-50
2021/03/24 03:42:44;;;;;;;2.15;1.95;;;;;;;;;;5115501;28;20188;-49
2021/03/24 03:45:12;;;;;;;1.98;1.88;;;;;;;;;;5114888;28;20214;-49
2021/03/24 03:47:39;;;;;;;2.33;2.13;;;;;;;;;;5115171;28;20504;-50
2021/03/24 03:50:07;;;;;;;2.17;2.00;;;;;;;;;;5115238;28;20251;-50
2021/03/24 03:52:44;;;;;;;2.00;1.90;;;;;;;;;;5115201;28;20173;-50
2021/03/24 03:55:25;;;;;;;2.20;1.92;;;;;;;;;;5114651;28;20531;-50
2021/03/24 03:57:54;;;;;;;2.67;1.90;;;;;;;;;;5114899;28;20177;-50
2021/03/24 04:00:46;;;;;;;2.28;2.08;;;;;;;;;;5114427;28;20185;-50
2021/03/24 04:03:17;;;;;;;2.15;1.92;;;;;;;;;;5111558;28;20576;-50
2021/03/24 04:05:49;;;;;;;1.90;1.80;;;;;;;;;;5114434;28;20231;-50
2021/03/24 04:08:18;;;;;;;2.08;1.88;;;;;;;;;;5096755;28;20446;-50
2021/03/24 04:10:57;;;;;;;1.95;1.85;;;;;;;;;;5115139;28;20698;-50
2021/03/24 04:13:25;;;;;;;2.10;1.90;;;;;;;;;;5114964;28;20534;-50
2021/03/24 04:15:54;;;;;;;2.30;2.10;;;;;;;;;;5114535;28;20196;-50
2021/03/24 04:18:23;;;;;;;3.28;2.03;;;;;;;;;;5113597;28;20187;-50
2021/03/24 04:20:49;;;;;;;2.35;1.70;;;;;;;;;;5114935;28;20173;-49
2021/03/24 04:23:17;;;;;;;2.13;1.92;;;;;;;;;;5114289;28;20246;-50
2021/03/24 04:25:58;;;;;;;2.00;1.90;;;;;;;;;;5113417;28;20295;-50
2021/03/24 04:28:28;;;;;;;2.15;2.00;;;;;;;;;;5114272;28;20256;-50
2021/03/24 04:30:59;;;;;;;2.03;1.92;;;;;;;;;;5114868;28;20173;-50
2021/03/24 04:33:25;;;;;;;2.20;2.00;;;;;;;;;;5114388;28;20843;-49
2021/03/24 04:35:52;;;;;;;2.00;1.90;;;;;;;;;;5113319;28;20192;-50
2021/03/24 04:38:39;;;;;;;1.83;1.73;;;;;;;;;;5112843;28;20187;-49
2021/03/24 04:41:07;;;;;;;2.50;2.30;;;;;;;;;;5114002;28;20216;-50
2021/03/24 04:43:36;;;;;;;2.00;1.90;;;;;;;;;;5114221;28;20177;-50
2021/03/24 04:46:02;;;;;;;2.10;2.00;;;;;;;;;;5113454;28;20204;-50
2021/03/24 04:48:54;;;;;;;2.50;2.30;;;;;;;;;;5113507;28;20210;-49
2021/03/24 04:51:22;;;;;;;2.05;1.90;;;;;;;;;;5110601;28;20189;-50
2021/03/24 04:53:55;;;;;;;2.25;2.00;;;;;;;;;;5113748;28;20263;-50
2021/03/24 04:56:22;;;;;;;2.35;2.10;;;;;;;;;;5113884;28;20268;-49
2021/03/24 04:58:52;;;;;;;1.95;1.85;;;;;;;;;;5113605;28;20263;-49
2021/03/24 05:01:18;;;;;;;2.38;2.15;;;;;;;;;;5113349;28;20631;-49
2021/03/24 05:03:45;;;;;;;3.33;2.25;;;;;;;;;;5114425;28;20260;-50
2021/03/24 05:06:31;;;;;;;2.70;2.33;;;;;;;;;;5112897;28;20205;-50
2021/03/24 05:08:57;;;;;;;6.95;2.40;;;;;;;;;;5103124;28;20199;-50
2021/03/24 05:11:26;;;;;;;5.43;2.53;;;;;;;;;;5113753;28;20169;-50
2021/03/24 05:13:58;;;;;;;5.15;2.85;;;;;;;;;;5113685;28;20177;-50
2021/03/24 05:16:35;;;;;;;2.65;2.40;;;;;;;;;;5113517;28;20650;-50
2021/03/24 05:19:01;;;;;;;5.32;2.40;;;;;;;;;;5093732;28;20250;-50
2021/03/24 05:21:45;;;;;;;4.75;2.67;;;;;;;;;;5109155;28;20196;-50
2021/03/24 05:24:13;;;;;;;5.63;2.58;;;;;;;;;;5113679;28;20256;-50
2021/03/24 05:26:41;;;;;;;3.45;2.75;;;;;;;;;;5108524;28;20204;-50
2021/03/24 05:29:11;;;;;;;3.88;2.78;;;;;;;;;;5108897;28;20178;-49
2021/03/24 05:31:39;;;;;;;2.55;2.35;;;;;;;;;;5117962;28;20485;-50
2021/03/24 05:34:07;;;;;;;4.07;2.90;;;;;;;;;;5117473;28;20339;-50
2021/03/24 05:36:35;;;;;;;3.58;2.90;;;;;;;;;;5116206;28;20234;-50
2021/03/24 05:39:20;;;;;;;5.07;2.63;;;;;;;;;;5117930;28;20695;-50
2021/03/24 05:41:53;;;;;;;2.80;2.50;;;;;;;;;;5114618;28;20219;-50
2021/03/24 05:44:39;;;;;;;5.82;2.58;;;;;;;;;;5116309;28;20188;-50
2021/03/24 05:47:14;;;;;;;3.45;2.40;;;;;;;;;;5115825;28;20199;-50
2021/03/24 05:49:58;;;;;;;4.93;2.95;;;;;;;;;;5116518;28;20166;-50
2021/03/24 05:52:39;;;;;;;3.78;3.35;;;;;;;;;;5116643;28;20184;-50
2021/03/24 05:55:19;;;;;;;4.38;2.72;;;;;;;;;;5107060;28;20173;-50
2021/03/24 05:58:03;;;;;;;4.50;2.63;;;;;;;;;;5097096;28;20187;-50
2021/03/24 06:00:48;;;;;;;4.90;2.88;;;;;;;;;;5115378;28;20181;-50
2021/03/24 06:03:33;;;;;;;3.97;2.85;;;;;;;;;;5116523;28;20185;-50
2021/03/24 06:06:02;;;;;;;3.55;3.13;;;;;;;;;;5116475;28;20201;-49
2021/03/24 06:08:28;;;;;;;4.45;2.88;;;;;;;;;;5116849;28;20195;-50
2021/03/24 06:10:54;;;;;;;7.10;2.90;;;;;;;;;;5099641;28;20181;-50
2021/03/24 06:13:43;;;;;;;5.47;2.67;;;;;;;;;;5106855;28;20579;-50
2021/03/24 06:16:27;;;;;;;5.50;3.00;;;;;;;;;;5114767;28;20181;-50
2021/03/24 06:19:04;;;;;;;3.15;2.83;;;;;;;;;;5116474;28;20193;-50
2021/03/24 06:21:30;;;;;;;4.35;3.30;;;;;;;;;;5116484;28;20574;-50
2021/03/24 06:24:02;;;;;;;4.50;3.35;;;;;;;;;;5115660;28;20173;-50
2021/03/24 06:26:34;;;;;;;3.45;2.72;;;;;;;;;;5097028;28;20198;-50
2021/03/24 06:29:09;;;;;;;5.15;3.00;;;;;;;;;;5112147;28;20264;-50
2021/03/24 06:31:53;;;;;;;3.80;2.83;;;;;;;;;;5116592;28;20208;-50
2021/03/24 06:34:19;;;;;;;4.47;3.30;;;;;;;;;;5116190;28;20211;-50
2021/03/24 06:36:48;;;;;;;4.43;2.95;;;;;;;;;;5116204;28;20185;-50
2021/03/24 06:39:17;;;;;;;3.70;3.10;;;;;;;;;;5116482;28;20451;-50
2021/03/24 06:41:55;;;;;;;3.13;2.83;;;;;;;;;;5115507;28;20173;-50
2021/03/24 06:44:27;;;;;;;4.00;2.65;;;;;;;;;;5115621;28;20487;-50
2021/03/24 06:47:04;;;;;;;4.90;3.10;;;;;;;;;;5115890;28;20643;-49
2021/03/24 06:49:33;;;;;;;4.57;3.22;;;;;;;;;;5114660;28;20185;-50
2021/03/24 06:52:18;;;;;;;4.90;2.85;;;;;;;;;;5098498;28;20560;-50
2021/03/24 06:55:03;;;;;;;3.50;3.03;;;;;;;;;;5115836;28;20206;-50
2021/03/24 06:57:46;;;;;;;3.33;3.03;;;;;;;;;;5115973;28;20732;-50
2021/03/24 07:00:28;;;;;;;3.85;2.85;;;;;;;;;;5116602;28;20451;-49
2021/03/24 07:02:57;;;;;;;3.20;2.90;;;;;;;;;;5116088;28;20185;-50
2021/03/24 07:05:23;;;;;;;3.15;2.80;;;;;;;;;;5114434;28;20205;-49
2021/03/24 07:08:02;;;;;;;3.17;2.88;;;;;;;;;;5116078;28;20196;-50
2021/03/24 07:10:28;;;;;;;3.58;3.13;;;;;;;;;;5115801;28;20185;-50
2021/03/24 07:13:13;;;;;;;3.47;3.17;;;;;;;;;;5104182;28;20184;-50
2021/03/24 07:16:05;;;;;;;3.17;2.88;;;;;;;;;;5104668;28;20825;-50
2021/03/24 07:18:31;;;;;;;3.67;3.17;;;;;;;;;;5083892;28;20266;-50
2021/03/24 07:21:06;;;;;;;2.90;2.70;;;;;;;;;;5113416;28;20541;-50
2021/03/24 07:23:36;;;;;;;3.30;3.00;;;;;;;;;;5113834;28;20196;-50
2021/03/24 07:26:17;;;;;;;3.10;2.80;;;;;;;;;;5114501;28;20239;-49
2021/03/24 07:29:02;;;;;;;3.90;3.05;;;;;;;;;;5115100;28;20239;-50
2021/03/24 07:31:46;;;;;;;3.20;2.90;;;;;;;;;;5100441;28;20189;-50
2021/03/24 07:34:20;;;;;;;3.47;3.17;;;;;;;;;;5111741;28;20252;-49
2021/03/24 07:36:59;;;;;;;4.78;2.80;;;;;;;;;;5095440;28;20426;-49
2021/03/24 07:39:44;;;;;;;3.60;3.20;;;;;;;;;;5094827;28;20209;-49
2021/03/24 07:42:13;;;;;;;3.28;2.85;;;;;;;;;;5108228;28;20185;-50
2021/03/24 07:44:51;;;;;;;3.10;2.80;;;;;;;;;;5114165;28;20506;-50
2021/03/24 07:47:26;;;;;;;3.22;2.92;;;;;;;;;;5094837;28;20177;-50
2021/03/24 07:49:52;;;;;;;4.30;3.33;;;;;;;;;;5076464;28;20505;-49
2021/03/24 07:52:37;;;;;;;3.47;3.17;;;;;;;;;;5093874;28;20193;-49
2021/03/24 07:55:17;;;;;;;3.75;2.80;;;;;;;;;;5112646;28;20192;-50
2021/03/24 07:58:03;;;;;;;3.75;3.13;;;;;;;;;;5115147;28;20572;-50
2021/03/24 08:00:33;;;;;;;3.90;3.08;;;;;;;;;;5073299;28;20479;-50
2021/03/24 08:03:08;;;;;;;3.75;3.08;;;;;;;;;;5115227;28;20321;-50
2021/03/24 08:05:49;;;;;;;3.97;2.50;;;;;;;;;;5114412;28;20188;-49
2021/03/24 08:08:22;;;;;;;3.22;2.92;;;;;;;;;;5113254;28;20185;-49
2021/03/24 08:10:51;;;;;;;4.45;3.10;;;;;;;;;;5114894;28;20184;-49
2021/03/24 08:13:17;;;;;;;4.45;2.78;;;;;;;;;;5108836;28;20170;-50
2021/03/24 08:16:02;;;;;;;3.88;2.95;;;;;;;;;;5094036;28;20210;-49
2021/03/24 08:18:46;;;;;;;3.30;3.00;;;;;;;;;;5111608;28;20181;-49
2021/03/24 08:21:26;;;;;;;4.03;3.22;;;;;;;;;;5114822;28;20794;-49
2021/03/24 08:24:04;;;;;;;3.08;2.60;;;;;;;;;;5114823;28;20196;-49
2021/03/24 08:26:42;;;;;;;3.22;2.92;;;;;;;;;;5113821;28;20308;-50
2021/03/24 08:29:27;;;;;;;4.57;3.03;;;;;;;;;;5114075;28;20210;-50
2021/03/24 08:31:55;;;;;;;3.05;2.60;;;;;;;;;;5114752;28;20169;-49
2021/03/24 08:34:31;;;;;;;6.72;3.20;;;;;;;;;;5113640;28;20174;-49
2021/03/24 08:37:03;;;;;;;4.75;2.92;;;;;;;;;;5114178;28;20195;-49
2021/03/24 08:39:32;;;;;;;3.88;3.22;;;;;;;;;;5114196;28;20197;-49
2021/03/24 08:41:58;;;;;;;3.03;2.72;;;;;;;;;;5113859;28;20181;-50
2021/03/24 08:44:36;;;;;;;2.95;2.65;;;;;;;;;;5113581;28;20187;-49
2021/03/24 08:47:18;;;;;;;3.20;2.80;;;;;;;;;;5114448;28;20205;-49
2021/03/24 08:49:47;;;;;;;3.15;2.85;;;;;;;;;;5114334;28;20180;-49
2021/03/24 08:52:33;;;;;;;3.17;2.80;;;;;;;;;;5114039;28;20169;-49
2021/03/24 08:55:02;;;;;;;3.80;2.90;;;;;;;;;;5112598;28;20185;-50
2021/03/24 08:57:47;;;;;;;3.60;3.00;;;;;;;;;;5113305;28;20192;-49
2021/03/24 09:00:28;;;;;;;3.47;3.17;;;;;;;;;;5113587;28;20430;-49
2021/03/24 09:03:04;;;;;;;3.40;3.00;;;;;;;;;;5114137;28;20192;-49
2021/03/24 09:05:36;;;;;;;4.30;3.38;;;;;;;;;;5116010;28;20188;-50
2021/03/24 09:08:05;;;;;;;3.38;3.05;;;;;;;;;;5118156;28;20500;-49
2021/03/24 09:10:47;;;;;;;4.50;3.00;;;;;;;;;;5117348;28;20225;-49
2021/03/24 09:13:32;;;;;;;3.25;3.00;;;;;;;;;;5117681;28;20496;-49
2021/03/24 09:16:16;;;;;;;3.40;3.10;;;;;;;;;;5117901;28;20268;-49
2021/03/24 09:18:42;;;;;;;4.22;3.20;;;;;;;;;;5118192;28;20209;-50
2021/03/24 09:21:28;;;;;;;5.13;3.03;;;;;;;;;;5118095;28;20222;-50
2021/03/24 09:24:13;;;;;;;3.13;2.83;;;;;;;;;;5118446;28;20243;-50
2021/03/24 09:27:11;;;;;;;3.95;3.10;;;;;;;;;;5117854;28;20215;-49
2021/03/24 09:29:47;;;;;;;5.55;3.05;;;;;;;;;;5071669;28;20505;-49
2021/03/24 09:32:15;;;;;;;3.35;2.90;;;;;;;;;;5118016;28;20180;-49
2021/03/24 09:34:54;;;;;;;3.65;2.90;;;;;;;;;;5117226;28;20188;-49
2021/03/24 09:37:23;;;;;;;5.22;3.33;;;;;;;;;;5117339;28;20866;-50
2021/03/24 09:39:52;;;;;;;7.53;2.92;;;;;;;;;;5117849;28;20670;-50
2021/03/24 09:42:28;;;;;;;4.07;3.10;;;;;;;;;;5117319;28;20181;-50
2021/03/24 09:45:05;;;;;;;5.43;2.85;;;;;;;;;;5116873;28;20193;-50
2021/03/24 09:47:34;;;;;;;6.43;3.13;;;;;;;;;;5117292;28;20264;-49
2021/03/24 09:50:06;;;;;;;4.18;2.90;;;;;;;;;;5115729;28;20185;-50
2021/03/24 09:52:32;;;;;;;4.55;3.17;;;;;;;;;;5105981;28;20189;-50
2021/03/24 09:54:58;;;;;;;5.22;3.05;;;;;;;;;;5096277;28;20180;-50
2021/03/24 09:57:28;;;;;;;3.63;3.22;;;;;;;;;;5110278;28;20567;-50
2021/03/24 10:00:06;;;;;;;4.13;3.08;;;;;;;;;;5117350;28;20191;-50
2021/03/24 10:02:48;;;;;;;6.07;3.00;;;;;;;;;;5117146;28;20272;-49
2021/03/24 10:05:15;;;;;;;5.65;2.90;;;;;;;;;;5116176;28;20592;-49
2021/03/24 10:07:42;;;;;;;5.32;2.80;;;;;;;;;;5103273;28;20260;-49
2021/03/24 10:10:16;;;;;;;5.57;2.78;;;;;;;;;;5097463;28;20173;-49
2021/03/24 10:13:04;;;;;;;3.85;3.30;;;;;;;;;;5116831;28;20165;-50
2021/03/24 10:15:38;;;;;;;9.30;3.33;;;;;;;;;;5115975;28;20181;-49
2021/03/24 10:18:08;;;;;;;3.20;2.80;;;;;;;;;;5115799;28;20176;-49
2021/03/24 10:20:46;;;;;;;3.58;2.95;;;;;;;;;;5115897;28;20201;-50
2021/03/24 10:23:35;;;;;;;3.28;2.97;;;;;;;;;;5098279;28;20238;-49
2021/03/24 10:26:12;;;;;;;4.25;2.85;;;;;;;;;;5116064;28;20200;-49
2021/03/24 10:28:59;;;;;;;4.10;3.15;;;;;;;;;;5098694;28;20181;-49
2021/03/24 10:31:27;;;;;;;3.05;2.75;;;;;;;;;;5110019;28;20182;-49
2021/03/24 10:33:56;;;;;;;4.00;2.97;;;;;;;;;;5108433;28;20177;-49
2021/03/24 10:36:22;;;;;;;5.63;3.10;;;;;;;;;;5110687;28;20291;-50
2021/03/24 10:39:00;;;;;;;5.15;2.95;;;;;;;;;;5115585;28;20858;-49
2021/03/24 10:41:48;;;;;;;3.42;2.88;;;;;;;;;;5114689;28;20188;-50
2021/03/24 10:44:24;;;;;;;2.75;2.50;;;;;;;;;;5105142;28;20517;-49
2021/03/24 10:46:53;;;;;;;3.08;2.70;;;;;;;;;;5116336;28;20196;-49
2021/03/24 10:49:25;;;;;;;3.38;2.90;;;;;;;;;;5116022;28;20208;-49
2021/03/24 10:51:51;;;;;;;3.78;2.88;;;;;;;;;;5116723;28;20181;-49
2021/03/24 10:54:26;;;;;;;3.95;3.17;;;;;;;;;;5115950;28;20546;-50
2021/03/24 10:57:02;;;;;;;3.70;3.28;;;;;;;;;;5108691;28;20185;-49
2021/03/24 10:59:52;;;;;;;5.13;2.97;;;;;;;;;;5112772;28;20264;-50
2021/03/24 11:02:34;;;;;;;3.63;3.05;;;;;;;;;;5115598;28;20193;-49
2021/03/24 11:05:08;;;;;;;4.40;3.60;;;;;;;;;;5113422;28;20250;-49
2021/03/24 11:07:53;;;;;;;5.80;3.10;;;;;;;;;;5097849;28;20179;-50
2021/03/24 11:10:32;;;;;;;3.40;3.10;;;;;;;;;;5115253;28;20181;-49
2021/03/24 11:13:03;;;;;;;3.65;3.30;;;;;;;;;;5116087;28;20201;-49
2021/03/24 11:15:40;;;;;;;4.43;3.30;;;;;;;;;;5114965;28;20189;-49
2021/03/24 11:18:08;;;;;;;3.85;3.13;;;;;;;;;;5115060;28;20279;-49
2021/03/24 11:20:42;;;;;;;3.40;2.85;;;;;;;;;;5099929;28;20212;-50
2021/03/24 11:23:10;;;;;;;4.90;2.80;;;;;;;;;;5115583;28;20189;-50
2021/03/24 11:25:40;;;;;;;6.78;3.88;;;;;;;;;;5114727;28;20200;-49
2021/03/24 11:28:25;;;;;;;5.72;3.63;;;;;;;;;;5114802;28;20201;-49
2021/03/24 11:30:59;;;;;;;5.75;3.85;;;;;;;;;;5115742;28;20249;-50
2021/03/24 11:33:30;;;;;;;6.13;4.03;;;;;;;;;;5114885;28;20196;-49
2021/03/24 11:35:59;;;;;;;4.43;3.38;;;;;;;;;;5113531;28;20196;-49
2021/03/24 11:38:42;;;;;;;6.35;4.00;;;;;;;;;;5115214;28;20246;-50
2021/03/24 11:41:12;;;;;;;6.38;3.45;;;;;;;;;;5112758;28;20208;-50
2021/03/24 11:43:40;;;;;;;5.53;3.70;;;;;;;;;;5115121;28;20181;-50
2021/03/24 11:46:12;;;;;;;10.27;3.70;;;;;;;;;;5114882;28;20200;-50
2021/03/24 11:48:46;;;;;;;6.18;3.40;;;;;;;;;;5115140;28;20220;-49
2021/03/24 11:51:18;;;;;;;7.28;3.83;;;;;;;;;;5115965;28;20242;-50
2021/03/24 11:54:02;;;;;;;4.85;3.40;;;;;;;;;;5114698;28;20179;-49
2021/03/24 11:56:28;;;;;;;6.10;3.55;;;;;;;;;;5114426;28;20189;-50
2021/03/24 11:58:57;;;;;;;6.10;3.22;;;;;;;;;;5113860;28;20185;-49
2021/03/24 12:01:23;;;;;;;4.85;3.40;;;;;;;;;;5115060;28;20234;-50
2021/03/24 12:03:50;;;;;;;6.38;3.55;;;;;;;;;;5114690;28;20455;-50
2021/03/24 12:06:24;;;;;;;6.72;3.30;;;;;;;;;;5114097;28;20300;-49
2021/03/24 12:09:02;;;;;;;6.75;3.78;;;;;;;;;;5114724;28;20170;-49
2021/03/24 12:11:33;;;;;;;4.38;3.28;;;;;;;;;;5114521;28;20442;-49
2021/03/24 12:14:24;;;;;;;4.97;3.35;;;;;;;;;;5114909;28;20208;-50
2021/03/24 12:16:56;;;;;;;4.82;3.03;;;;;;;;;;5103286;28;20242;-49
2021/03/24 12:19:31;;;;;;;4.45;3.38;;;;;;;;;;5114717;28;20521;-49
2021/03/24 12:21:59;;;;;;;5.35;3.17;;;;;;;;;;5114922;28;20271;-49
2021/03/24 12:24:36;;;;;;;4.13;2.97;;;;;;;;;;5113432;28;20495;-49
2021/03/24 12:27:16;;;;;;;4.88;3.20;;;;;;;;;;5114484;28;20249;-50
2021/03/24 12:29:44;;;;;;;4.63;3.20;;;;;;;;;;5114857;28;20247;-49
2021/03/24 12:32:24;;;;;;;4.25;2.92;;;;;;;;;;5114427;28;20212;-49
2021/03/24 12:34:51;;;;;;;4.75;3.00;;;;;;;;;;5109673;28;20173;-49
2021/03/24 12:37:32;;;;;;;8.43;2.80;;;;;;;;;;5113588;28;20187;-50
2021/03/24 12:40:08;;;;;;;3.90;3.00;;;;;;;;;;5113333;28;20181;-50
2021/03/24 12:42:34;;;;;;;3.70;2.70;;;;;;;;;;5108831;28;20276;-49
2021/03/24 12:45:00;;;;;;;3.85;2.90;;;;;;;;;;5111430;28;20587;-50
2021/03/24 12:47:34;;;;;;;3.50;2.90;;;;;;;;;;5112417;28;20268;-50
2021/03/24 12:50:03;;;;;;;4.60;3.08;;;;;;;;;;5112170;28;20173;-50
2021/03/24 12:52:36;;;;;;;5.88;2.67;;;;;;;;;;5112045;28;20173;-50
2021/03/24 12:55:02;;;;;;;4.70;3.13;;;;;;;;;;5112427;28;20872;-50
2021/03/24 12:57:28;;;;;;;4.57;2.90;;;;;;;;;;5112590;28;20639;-49
2021/03/24 13:00:03;;;;;;;3.80;3.05;;;;;;;;;;5113915;28;20263;-50
2021/03/24 13:02:29;;;;;;;3.15;2.80;;;;;;;;;;5113077;28;20204;-49
2021/03/24 13:05:14;;;;;;;7.72;3.05;;;;;;;;;;5113380;28;20208;-49
2021/03/24 13:07:40;;;;;;;7.57;2.90;;;;;;;;;;5113737;28;20229;-49
2021/03/24 13:10:24;;;;;;;5.93;2.65;;;;;;;;;;5114280;28;20248;-49
2021/03/24 13:13:02;;;;;;;3.45;2.72;;;;;;;;;;5114113;28;20181;-49
2021/03/24 13:15:29;;;;;;;7.35;4.15;;;;;;;;;;5112940;28;20180;-50
2021/03/24 13:18:04;;;;;;;24.17;6.25;;;;;;;;;;5113514;28;20181;-50
2021/03/24 13:20:42;;;;;;;36.13;9.40;;;;;;;;;;5113911;28;20177;-49
2021/03/24 13:23:14;;;;;;;35.67;9.88;;;;;;;;;;5113502;28;20196;-49
2021/03/24 13:25:43;;;;;;;44.30;10.75;;;;;;;;;;5112397;28;20213;-50
2021/03/24 13:28:21;;;;;;;44.25;11.00;;;;;;;;;;5112577;28;20515;-50
2021/03/24 13:30:53;;;;;;;53.85;14.32;;;;;;;;;;5094285;28;20189;-49
2021/03/24 13:33:27;;;;;;;54.47;15.30;;;;;;;;;;5113673;28;20196;-50
2021/03/24 13:36:01;;;;;;;71.18;17.02;;;;;;;;;;5096056;28;20184;-49
2021/03/24 13:38:43;;;;;;;60.65;17.00;;;;;;;;;;5093375;28;20224;-49
2021/03/24 13:41:12;;;;;;;61.25;17.52;;;;;;;;;;5094207;28;20185;-49
2021/03/24 13:43:56;;;;;;;73.25;19.02;;;;;;;;;;5113460;28;20257;-50
2021/03/24 13:46:26;;;;;;;68.43;19.65;;;;;;;;;;5113162;28;20201;-50
2021/03/24 13:48:54;;;;;;;78.32;20.40;;;;;;;;;;5113426;28;20185;-50
2021/03/24 13:51:29;;;;;;;63.97;20.25;;;;;;;;;;5115697;28;20180;-50
2021/03/24 13:53:55;;;;;;;81.15;21.25;;;;;;;;;;5099621;28;20486;-50
2021/03/24 13:56:36;;;;;;;74.05;21.42;;;;;;;;;;5116481;28;20188;-50
2021/03/24 13:59:06;;;;;;;77.07;21.27;;;;;;;;;;5117736;28;20229;-50
2021/03/24 14:01:51;;;;;;;65.30;19.75;;;;;;;;;;5117413;28;20663;-49
2021/03/24 14:04:17;;;;;;;64.80;19.10;;;;;;;;;;5116590;28;20818;-49
2021/03/24 14:06:52;;;;;;;62.55;18.77;;;;;;;;;;5117032;28;20203;-49
2021/03/24 14:09:28;;;;;;;57.05;17.08;;;;;;;;;;5117076;28;20177;-49
2021/03/24 14:12:10;;;;;;;65.95;18.17;;;;;;;;;;5116861;28;20737;-49
2021/03/24 14:14:42;;;;;;;59.35;18.10;;;;;;;;;;5116481;28;20184;-49
2021/03/24 14:17:27;;;;;;;60.05;17.60;;;;;;;;;;5117354;28;20207;-49
2021/03/24 14:20:03;;;;;;;56.13;17.00;;;;;;;;;;5116789;28;20192;-49
2021/03/24 14:22:42;;;;;;;43.53;15.90;;;;;;;;;;5116766;28;20555;-49
2021/03/24 14:25:22;;;;;;;50.05;15.82;;;;;;;;;;5116601;28;20242;-49
2021/03/24 14:27:54;;;;;;;50.42;15.48;;;;;;;;;;5116723;28;20173;-49
2021/03/24 14:30:21;;;;;;;46.33;16.17;;;;;;;;;;5116747;28;20173;-49
2021/03/24 14:33:00;;;;;;;45.35;15.10;;;;;;;;;;5116715;28;20494;-49
2021/03/24 14:35:35;;;;;;;43.67;15.20;;;;;;;;;;5106654;28;20216;-49
2021/03/24 14:38:10;;;;;;;41.05;14.73;;;;;;;;;;5116443;28;20567;-49
2021/03/24 14:40:39;;;;;;;41.65;13.73;;;;;;;;;;5116455;28;20550;-50
2021/03/24 14:43:11;;;;;;;45.72;14.52;;;;;;;;;;5117037;28;20169;-49
2021/03/24 14:45:45;;;;;;;41.65;14.52;;;;;;;;;;5113900;28;20240;-49
2021/03/24 14:48:33;;;;;;;40.53;14.05;;;;;;;;;;5105062;28;20176;-49
2021/03/24 14:51:01;;;;;;;40.78;13.98;;;;;;;;;;5116615;28;20326;-49
2021/03/24 14:53:29;;;;;;;34.60;13.02;;;;;;;;;;5115917;28;20472;-49
2021/03/24 14:55:58;;;;;;;35.30;13.75;;;;;;;;;;5115998;28;20188;-49
2021/03/24 14:58:24;;;;;;;37.25;12.93;;;;;;;;;;5116288;28;20200;-49
2021/03/24 15:00:51;;;;;;;31.45;11.60;;;;;;;;;;5116412;28;20507;-49
2021/03/24 15:03:20;;;;;;;33.47;12.23;;;;;;;;;;5114822;28;20630;-50
2021/03/24 15:05:46;;;;;;;32.92;11.65;;;;;;;;;;5115691;28;20211;-49
2021/03/24 15:08:21;;;;;;;35.13;12.43;;;;;;;;;;5115741;28;20185;-49
2021/03/24 15:11:05;;;;;;;34.88;12.13;;;;;;;;;;5114940;28;20180;-49
2021/03/24 15:13:36;;;;;;;29.48;11.70;;;;;;;;;;5115523;28;20173;-49
2021/03/24 15:16:18;;;;;;;31.60;11.13;;;;;;;;;;5115742;28;20318;-49